sensor_id;sensor_type;location;lat;lon;timestamp;pressure;altitude;pressure_sealevel;temperature;humidity
26823;BME280;14852;51.910;8.878;2023-08-07T00:00:59;99002.09;;;17.77;64.88
26823;BME280;14852;51.910;8.878;2023-08-07T00:03:24;99001.13;;;17.78;64.78
26823;BME280;14852;51.910;8.878;2023-08-07T00:05:50;99003.75;;;17.78;64.61
26823;BME280;14852;51.910;8.878;2023-08-07T00:08:18;98997.03;;;17.76;64.58
26823;BME280;14852;51.910;8.878;2023-08-07T00:10:44;99001.13;;;17.78;64.74
26823;BME280;14852;51.910;8.878;2023-08-07T00:13:10;99008.03;;;17.79;64.27
26823;BME280;14852;51.910;8.878;2023-08-07T00:15:38;98999.47;;;17.77;64.55
26823;BME280;14852;51.910;8.878;2023-08-07T00:18:04;99007.66;;;17.74;64.66
26823;BME280;14852;51.910;8.878;2023-08-07T00:20:30;99007.81;;;17.72;64.93
26823;BME280;14852;51.910;8.878;2023-08-07T00:22:56;99007.81;;;17.72;64.56
26823;BME280;14852;51.910;8.878;2023-08-07T00:25:21;98999.09;;;17.72;64.72
26823;BME280;14852;51.910;8.878;2023-08-07T00:27:48;98999.25;;;17.70;64.81
26823;BME280;14852;51.910;8.878;2023-08-07T00:30:14;98998.41;;;17.70;65.05
26823;BME280;14852;51.910;8.878;2023-08-07T00:32:40;98998.25;;;17.71;64.55
26823;BME280;14852;51.910;8.878;2023-08-07T00:35:06;99006.16;;;17.71;64.71
26823;BME280;14852;51.910;8.878;2023-08-07T00:37:34;99009.59;;;17.72;64.60
26823;BME280;14852;51.910;8.878;2023-08-07T00:40:01;99004.34;;;17.72;64.67
26823;BME280;14852;51.910;8.878;2023-08-07T00:42:28;99002.69;;;17.71;64.59
26823;BME280;14852;51.910;8.878;2023-08-07T00:44:54;98999.25;;;17.70;65.00
26823;BME280;14852;51.910;8.878;2023-08-07T00:47:19;99003.66;;;17.70;64.65
26823;BME280;14852;51.910;8.878;2023-08-07T00:49:46;99006.28;;;17.70;65.13
26823;BME280;14852;51.910;8.878;2023-08-07T00:52:13;99006.97;;;17.72;65.21
26823;BME280;14852;51.910;8.878;2023-08-07T00:54:39;99006.84;;;17.73;64.92
26823;BME280;14852;51.910;8.878;2023-08-07T00:57:11;99011.81;;;17.77;64.96
26823;BME280;14852;51.910;8.878;2023-08-07T00:59:38;99005.03;;;17.74;65.06
26823;BME280;14852;51.910;8.878;2023-08-07T01:02:05;99015.00;;;17.70;65.14
26823;BME280;14852;51.910;8.878;2023-08-07T01:04:31;99010.72;;;17.69;64.94
26823;BME280;14852;51.910;8.878;2023-08-07T01:06:57;99006.56;;;17.67;65.23
26823;BME280;14852;51.910;8.878;2023-08-07T01:09:25;99018.03;;;17.66;65.19
26823;BME280;14852;51.910;8.878;2023-08-07T01:17:23;99013.34;;;17.69;64.80
26823;BME280;14852;51.910;8.878;2023-08-07T01:19:52;99014.31;;;17.68;65.11
26823;BME280;14852;51.910;8.878;2023-08-07T01:22:20;99015.28;;;17.67;65.15
26823;BME280;14852;51.910;8.878;2023-08-07T01:24:48;99008.22;;;17.68;65.00
26823;BME280;14852;51.910;8.878;2023-08-07T01:30:42;99006.16;;;17.71;65.15
26823;BME280;14852;51.910;8.878;2023-08-07T01:33:09;99009.75;;;17.70;65.02
26823;BME280;14852;51.910;8.878;2023-08-07T01:35:46;98999.09;;;17.72;64.69
26823;BME280;14852;51.910;8.878;2023-08-07T01:38:13;99005.59;;;17.68;65.23
26823;BME280;14852;51.910;8.878;2023-08-07T01:40:40;98999.66;;;17.66;64.90
26823;BME280;14852;51.910;8.878;2023-08-07T01:43:08;98999.97;;;17.63;65.41
26823;BME280;14852;51.910;8.878;2023-08-07T01:45:34;99009.63;;;17.62;65.05
26823;BME280;14852;51.910;8.878;2023-08-07T01:48:00;98999.25;;;17.61;65.30
26823;BME280;14852;51.910;8.878;2023-08-07T01:50:26;99003.94;;;17.57;65.56
26823;BME280;14852;51.910;8.878;2023-08-07T01:52:52;99004.63;;;17.59;65.01
26823;BME280;14852;51.910;8.878;2023-08-07T01:55:20;99005.59;;;17.58;65.43
26823;BME280;14852;51.910;8.878;2023-08-07T01:57:55;99004.78;;;17.58;65.74
26823;BME280;14852;51.910;8.878;2023-08-07T02:00:21;99005.75;;;17.57;65.40
26823;BME280;14852;51.910;8.878;2023-08-07T02:02:47;99000.50;;;17.57;65.28
26823;BME280;14852;51.910;8.878;2023-08-07T02:05:13;99001.19;;;17.59;65.58
26823;BME280;14852;51.910;8.878;2023-08-07T02:07:40;99007.25;;;17.59;65.45
26823;BME280;14852;51.910;8.878;2023-08-07T02:10:06;99008.09;;;17.60;65.55
26823;BME280;14852;51.910;8.878;2023-08-07T02:12:32;99006.28;;;17.60;65.27
26823;BME280;14852;51.910;8.878;2023-08-07T02:14:59;99004.63;;;17.59;65.47
26823;BME280;14852;51.910;8.878;2023-08-07T02:17:29;99010.47;;;17.63;65.13
26823;BME280;14852;51.910;8.878;2023-08-07T02:19:58;99002.69;;;17.61;65.44
26823;BME280;14852;51.910;8.878;2023-08-07T02:22:24;99007.94;;;17.61;65.45
26823;BME280;14852;51.910;8.878;2023-08-07T02:24:50;99008.09;;;17.60;65.50
26823;BME280;14852;51.910;8.878;2023-08-07T02:27:16;99006.28;;;17.60;65.62
26823;BME280;14852;51.910;8.878;2023-08-07T02:29:43;99008.50;;;17.55;65.49
26823;BME280;14852;51.910;8.878;2023-08-07T02:32:09;99010.75;;;17.50;65.53
26823;BME280;14852;51.910;8.878;2023-08-07T02:34:35;99003.41;;;17.44;65.66
26823;BME280;14852;51.910;8.878;2023-08-07T02:37:01;99002.06;;;17.40;65.68
26823;BME280;14852;51.910;8.878;2023-08-07T02:39:27;99010.34;;;17.35;65.92
26823;BME280;14852;51.910;8.878;2023-08-07T02:41:52;99003.72;;;17.31;65.82
26823;BME280;14852;51.910;8.878;2023-08-07T02:44:19;99006.78;;;17.27;65.81
26823;BME280;14852;51.910;8.878;2023-08-07T02:46:45;99009.69;;;17.24;66.25
26823;BME280;14852;51.910;8.878;2023-08-07T02:49:11;99015.78;;;17.24;65.75
26823;BME280;14852;51.910;8.878;2023-08-07T02:51:37;99018.13;;;17.27;65.71
26823;BME280;14852;51.910;8.878;2023-08-07T02:54:03;99012.59;;;17.30;65.54
26823;BME280;14852;51.910;8.878;2023-08-07T02:56:29;99005.00;;;17.27;65.88
26823;BME280;14852;51.910;8.878;2023-08-07T02:58:55;99004.84;;;17.29;65.84
26823;BME280;14852;51.910;8.878;2023-08-07T03:01:23;99008.16;;;17.31;65.89
26823;BME280;14852;51.910;8.878;2023-08-07T03:03:49;99005.25;;;17.34;65.63
26823;BME280;14852;51.910;8.878;2023-08-07T03:06:15;99003.31;;;17.36;65.54
26823;BME280;14852;51.910;8.878;2023-08-07T03:08:41;99009.38;;;17.36;65.71
26823;BME280;14852;51.910;8.878;2023-08-07T03:11:08;99012.72;;;17.38;65.54
26823;BME280;14852;51.910;8.878;2023-08-07T03:13:34;99016.03;;;17.41;65.60
26823;BME280;14852;51.910;8.878;2023-08-07T03:16:04;99018.66;;;17.41;65.63
26823;BME280;14852;51.910;8.878;2023-08-07T03:18:30;99011.59;;;17.41;65.25
26823;BME280;14852;51.910;8.878;2023-08-07T03:20:57;99025.56;;;17.42;65.22
26823;BME280;14852;51.910;8.878;2023-08-07T03:23:24;99016.69;;;17.43;65.21
26823;BME280;14852;51.910;8.878;2023-08-07T03:26:11;99019.72;;;17.48;65.21
26823;BME280;14852;51.910;8.878;2023-08-07T03:28:39;99010.88;;;17.49;65.39
26823;BME280;14852;51.910;8.878;2023-08-07T03:31:05;99013.25;;;17.52;65.08
26823;BME280;14852;51.910;8.878;2023-08-07T03:33:33;99005.22;;;17.53;65.37
26823;BME280;14852;51.910;8.878;2023-08-07T03:35:59;99008.66;;;17.54;65.13
26823;BME280;14852;51.910;8.878;2023-08-07T03:38:25;99013.09;;;17.53;65.43
26823;BME280;14852;51.910;8.878;2023-08-07T03:40:54;99016.69;;;17.52;65.53
26823;BME280;14852;51.910;8.878;2023-08-07T03:43:20;99012.09;;;17.54;65.34
26823;BME280;14852;51.910;8.878;2023-08-07T03:45:45;99006.31;;;17.51;65.65
26823;BME280;14852;51.910;8.878;2023-08-07T03:48:11;99013.66;;;17.47;65.69
26823;BME280;14852;51.910;8.878;2023-08-07T03:50:37;99019.03;;;17.46;65.59
26823;BME280;14852;51.910;8.878;2023-08-07T03:53:06;99020.56;;;17.48;65.88
26823;BME280;14852;51.910;8.878;2023-08-07T03:55:36;99016.00;;;17.50;65.80
26823;BME280;14852;51.910;8.878;2023-08-07T03:58:02;99011.44;;;17.52;65.88
26823;BME280;14852;51.910;8.878;2023-08-07T04:00:28;99007.28;;;17.50;65.75
26823;BME280;14852;51.910;8.878;2023-08-07T04:02:54;99011.56;;;17.51;65.88
26823;BME280;14852;51.910;8.878;2023-08-07T04:05:20;99013.09;;;17.53;65.76
26823;BME280;14852;51.910;8.878;2023-08-07T04:07:46;99005.88;;;17.55;65.89
26823;BME280;14852;51.910;8.878;2023-08-07T04:10:12;99010.16;;;17.56;65.74
26823;BME280;14852;51.910;8.878;2023-08-07T04:12:38;99004.91;;;17.56;66.02
26823;BME280;14852;51.910;8.878;2023-08-07T04:15:05;99004.91;;;17.56;65.86
26823;BME280;14852;51.910;8.878;2023-08-07T04:17:32;99017.06;;;17.57;65.77
26823;BME280;14852;51.910;8.878;2023-08-07T04:19:58;99011.81;;;17.57;65.96
26823;BME280;14852;51.910;8.878;2023-08-07T04:22:23;99005.59;;;17.58;65.94
26823;BME280;14852;51.910;8.878;2023-08-07T04:24:49;99010.84;;;17.58;65.89
26823;BME280;14852;51.910;8.878;2023-08-07T04:27:15;99008.09;;;17.60;65.83
26823;BME280;14852;51.910;8.878;2023-08-07T04:29:41;99009.63;;;17.62;65.92
26823;BME280;14852;51.910;8.878;2023-08-07T04:32:07;99011.81;;;17.67;65.95
26823;BME280;14852;51.910;8.878;2023-08-07T04:34:33;99020.41;;;17.69;65.41
26823;BME280;14852;51.910;8.878;2023-08-07T04:36:58;99015.13;;;17.69;65.65
26823;BME280;14852;51.910;8.878;2023-08-07T04:39:24;99024.00;;;17.68;65.68
26823;BME280;14852;51.910;8.878;2023-08-07T04:41:50;99023.03;;;17.69;65.60
26823;BME280;14852;51.910;8.878;2023-08-07T04:44:16;99025.38;;;17.72;65.97
26823;BME280;14852;51.910;8.878;2023-08-07T04:46:42;99025.38;;;17.72;65.76
26823;BME280;14852;51.910;8.878;2023-08-07T04:49:08;99026.06;;;17.74;65.73
26823;BME280;14852;51.910;8.878;2023-08-07T04:51:34;99030.22;;;17.77;66.04
26823;BME280;14852;51.910;8.878;2023-08-07T04:53:59;99031.00;;;17.77;65.82
26823;BME280;14852;51.910;8.878;2023-08-07T04:56:25;99032.53;;;17.80;65.70
26823;BME280;14852;51.910;8.878;2023-08-07T04:58:51;99033.34;;;17.80;65.81
26823;BME280;14852;51.910;8.878;2023-08-07T05:01:17;99041.38;;;17.79;65.74
26823;BME280;14852;51.910;8.878;2023-08-07T05:03:42;99035.97;;;17.80;65.72
26823;BME280;14852;51.910;8.878;2023-08-07T05:06:08;99042.22;;;17.79;66.27
26823;BME280;14852;51.910;8.878;2023-08-07T05:08:34;99041.25;;;17.80;65.82
26823;BME280;14852;51.910;8.878;2023-08-07T05:10:59;99044.41;;;17.84;65.84
26823;BME280;14852;51.910;8.878;2023-08-07T05:13:25;99037.22;;;17.86;65.71
26823;BME280;14852;51.910;8.878;2023-08-07T05:15:51;99045.94;;;17.86;66.11
26823;BME280;14852;51.910;8.878;2023-08-07T05:18:17;99048.25;;;17.89;65.74
26823;BME280;14852;51.910;8.878;2023-08-07T05:20:43;99037.59;;;17.91;65.91
26823;BME280;14852;51.910;8.878;2023-08-07T05:23:09;99041.75;;;17.93;65.91
26823;BME280;14852;51.910;8.878;2023-08-07T05:25:36;99046.03;;;17.94;66.03
26823;BME280;14852;51.910;8.878;2023-08-07T05:28:03;99055.72;;;17.94;65.63
26823;BME280;14852;51.910;8.878;2023-08-07T05:30:29;99059.03;;;17.96;65.98
26823;BME280;14852;51.910;8.878;2023-08-07T05:32:54;99052.97;;;17.95;65.67
26823;BME280;14852;51.910;8.878;2023-08-07T05:35:20;99059.31;;;17.93;66.19
26823;BME280;14852;51.910;8.878;2023-08-07T05:37:46;99061.94;;;17.93;66.12
26823;BME280;14852;51.910;8.878;2023-08-07T05:40:12;99060.16;;;17.93;66.07
26823;BME280;14852;51.910;8.878;2023-08-07T05:42:38;99067.06;;;17.94;65.80
26823;BME280;14852;51.910;8.878;2023-08-07T05:45:04;99059.88;;;17.96;65.59
26823;BME280;14852;51.910;8.878;2023-08-07T05:47:32;99056.13;;;17.99;65.62
26823;BME280;14852;51.910;8.878;2023-08-07T05:49:57;99064.53;;;18.02;65.85
26823;BME280;14852;51.910;8.878;2023-08-07T05:52:23;99067.16;;;18.02;65.41
26823;BME280;14852;51.910;8.878;2023-08-07T05:54:49;99076.03;;;18.01;65.53
26823;BME280;14852;51.910;8.878;2023-08-07T05:57:15;99076.72;;;18.03;65.55
26823;BME280;14852;51.910;8.878;2023-08-07T05:59:41;99078.78;;;18.09;65.69
26823;BME280;14852;51.910;8.878;2023-08-07T06:02:07;99077.50;;;18.14;65.10
26823;BME280;14852;51.910;8.878;2023-08-07T06:04:32;99073.75;;;18.16;65.21
26823;BME280;14852;51.910;8.878;2023-08-07T06:06:58;99078.75;;;18.19;65.07
26823;BME280;14852;51.910;8.878;2023-08-07T06:09:24;99088.81;;;18.24;65.28
26823;BME280;14852;51.910;8.878;2023-08-07T06:11:50;99085.06;;;18.26;64.97
26823;BME280;14852;51.910;8.878;2023-08-07T06:14:16;99087.94;;;18.33;65.10
26823;BME280;14852;51.910;8.878;2023-08-07T06:16:41;99088.59;;;18.44;64.67
26823;BME280;14852;51.910;8.878;2023-08-07T06:19:07;99083.00;;;18.57;64.56
26823;BME280;14852;51.910;8.878;2023-08-07T06:21:34;99085.53;;;18.76;64.29
26823;BME280;14852;51.910;8.878;2023-08-07T06:24:00;99097.78;;;18.86;63.94
26823;BME280;14852;51.910;8.878;2023-08-07T06:26:25;99094.47;;;18.84;64.08
26823;BME280;14852;51.910;8.878;2023-08-07T06:28:51;99092.88;;;18.73;64.10
26823;BME280;14852;51.910;8.878;2023-08-07T06:31:18;99099.13;;;18.72;64.40
26823;BME280;14852;51.910;8.878;2023-08-07T06:33:44;99101.84;;;18.80;64.66
26823;BME280;14852;51.910;8.878;2023-08-07T06:36:10;99102.47;;;18.92;63.98
26823;BME280;14852;51.910;8.878;2023-08-07T06:38:36;99102.25;;;19.03;63.79
26823;BME280;14852;51.910;8.878;2023-08-07T06:41:02;99107.34;;;19.04;63.55
26823;BME280;14852;51.910;8.878;2023-08-07T06:43:28;99093.19;;;19.05;63.70
26823;BME280;14852;51.910;8.878;2023-08-07T06:45:55;99106.63;;;19.12;63.87
26823;BME280;14852;51.910;8.878;2023-08-07T06:48:21;99111.13;;;19.20;63.06
26823;BME280;14852;51.910;8.878;2023-08-07T06:50:48;99102.25;;;19.21;63.32
26823;BME280;14852;51.910;8.878;2023-08-07T06:53:14;99107.03;;;19.43;63.25
26823;BME280;14852;51.910;8.878;2023-08-07T06:55:41;99105.88;;;19.81;61.87
26823;BME280;14852;51.910;8.878;2023-08-07T06:58:07;99100.06;;;19.95;61.57
26823;BME280;14852;51.910;8.878;2023-08-07T07:00:34;99111.31;;;20.05;61.20
26823;BME280;14852;51.910;8.878;2023-08-07T07:03:01;99116.78;;;20.12;61.11
26823;BME280;14852;51.910;8.878;2023-08-07T07:05:27;99110.13;;;20.00;61.29
26823;BME280;14852;51.910;8.878;2023-08-07T07:07:53;99105.94;;;19.89;61.77
26823;BME280;14852;51.910;8.878;2023-08-07T07:10:20;99117.56;;;19.78;62.11
26823;BME280;14852;51.910;8.878;2023-08-07T07:12:46;99120.66;;;19.74;61.96
26823;BME280;14852;51.910;8.878;2023-08-07T07:15:12;99116.44;;;19.63;62.22
26823;BME280;14852;51.910;8.878;2023-08-07T07:17:38;99122.78;;;19.52;62.90
26823;BME280;14852;51.910;8.878;2023-08-07T07:20:05;99124.94;;;19.49;62.86
26823;BME280;14852;51.910;8.878;2023-08-07T07:22:30;99127.81;;;19.46;63.22
26823;BME280;14852;51.910;8.878;2023-08-07T07:24:56;99127.59;;;19.39;63.17
26823;BME280;14852;51.910;8.878;2023-08-07T07:27:22;99134.44;;;19.32;63.08
26823;BME280;14852;51.910;8.878;2023-08-07T07:29:50;99141.47;;;19.24;63.32
26823;BME280;14852;51.910;8.878;2023-08-07T07:32:16;99135.50;;;19.22;63.41
26823;BME280;14852;51.910;8.878;2023-08-07T07:34:42;99131.06;;;19.22;63.25
26823;BME280;14852;51.910;8.878;2023-08-07T07:37:08;99143.13;;;19.25;63.01
26823;BME280;14852;51.910;8.878;2023-08-07T07:39:35;99142.28;;;19.24;63.14
26823;BME280;14852;51.910;8.878;2023-08-07T07:42:01;99143.25;;;19.23;63.13
26823;BME280;14852;51.910;8.878;2023-08-07T07:44:26;99145.91;;;19.23;62.82
26823;BME280;14852;51.910;8.878;2023-08-07T07:46:52;99156.56;;;19.22;62.78
26823;BME280;14852;51.910;8.878;2023-08-07T07:49:18;99157.69;;;19.19;62.90
26823;BME280;14852;51.910;8.878;2023-08-07T07:51:44;99148.38;;;19.25;63.01
26823;BME280;14852;51.910;8.878;2023-08-07T07:54:10;99159.66;;;19.35;62.96
26823;BME280;14852;51.910;8.878;2023-08-07T07:56:36;99155.28;;;19.43;62.34
26823;BME280;14852;51.910;8.878;2023-08-07T07:59:02;99157.38;;;19.49;62.30
26823;BME280;14852;51.910;8.878;2023-08-07T08:01:28;99159.25;;;19.57;62.61
26823;BME280;14852;51.910;8.878;2023-08-07T08:03:54;99163.16;;;19.71;62.23
26823;BME280;14852;51.910;8.878;2023-08-07T08:06:20;99157.84;;;19.88;61.68
26823;BME280;14852;51.910;8.878;2023-08-07T08:08:46;99166.38;;;20.34;60.69
26823;BME280;14852;51.910;8.878;2023-08-07T08:11:12;99160.44;;;20.66;60.09
26823;BME280;14852;51.910;8.878;2023-08-07T08:13:38;99166.19;;;21.12;59.55
26823;BME280;14852;51.910;8.878;2023-08-07T08:16:05;99161.25;;;22.47;56.02
26823;BME280;14852;51.910;8.878;2023-08-07T08:18:31;99158.81;;;23.15;54.13
26823;BME280;14852;51.910;8.878;2023-08-07T08:20:57;99163.84;;;23.02;54.54
26823;BME280;14852;51.910;8.878;2023-08-07T08:23:23;99170.84;;;22.48;55.91
26823;BME280;14852;51.910;8.878;2023-08-07T08:25:49;99173.38;;;21.92;57.71
26823;BME280;14852;51.910;8.878;2023-08-07T08:28:15;99177.88;;;21.67;58.80
26823;BME280;14852;51.910;8.878;2023-08-07T08:30:42;99167.97;;;21.53;59.46
26823;BME280;14852;51.910;8.878;2023-08-07T08:33:07;99171.91;;;21.41;59.75
26823;BME280;14852;51.910;8.878;2023-08-07T08:35:37;99171.41;;;21.21;59.91
26823;BME280;14852;51.910;8.878;2023-08-07T08:38:02;99175.75;;;20.96;60.37
26823;BME280;14852;51.910;8.878;2023-08-07T08:40:30;99178.44;;;20.71;60.96
26823;BME280;14852;51.910;8.878;2023-08-07T08:42:59;99193.75;;;20.59;61.71
26823;BME280;14852;51.910;8.878;2023-08-07T08:45:27;99190.16;;;20.68;61.88
26823;BME280;14852;51.910;8.878;2023-08-07T08:48:02;99197.25;;;21.10;60.77
26823;BME280;14852;51.910;8.878;2023-08-07T08:50:29;99197.69;;;21.72;59.51
26823;BME280;14852;51.910;8.878;2023-08-07T08:52:56;99195.22;;;22.35;58.16
26823;BME280;14852;51.910;8.878;2023-08-07T08:55:23;99199.06;;;22.80;57.42
26823;BME280;14852;51.910;8.878;2023-08-07T08:57:49;99197.53;;;22.85;56.87
26823;BME280;14852;51.910;8.878;2023-08-07T09:00:16;99195.47;;;22.56;57.61
26823;BME280;14852;51.910;8.878;2023-08-07T09:02:47;99189.25;;;22.33;58.12
26823;BME280;14852;51.910;8.878;2023-08-07T09:05:20;99199.19;;;22.23;58.53
26823;BME280;14852;51.910;8.878;2023-08-07T09:07:47;99208.78;;;22.16;58.47
26823;BME280;14852;51.910;8.878;2023-08-07T09:10:15;99197.91;;;22.11;59.03
26823;BME280;14852;51.910;8.878;2023-08-07T09:12:56;99205.19;;;22.00;59.43
26823;BME280;14852;51.910;8.878;2023-08-07T09:15:23;99201.00;;;22.30;58.70
26823;BME280;14852;51.910;8.878;2023-08-07T09:17:51;99204.38;;;22.80;58.44
26823;BME280;14852;51.910;8.878;2023-08-07T09:20:18;99200.25;;;23.08;57.07
26823;BME280;14852;51.910;8.878;2023-08-07T09:22:46;99189.47;;;23.09;56.90
26823;BME280;14852;51.910;8.878;2023-08-07T09:25:11;99196.59;;;23.40;57.18
26823;BME280;14852;51.910;8.878;2023-08-07T09:27:38;99187.28;;;23.75;56.41
26823;BME280;14852;51.910;8.878;2023-08-07T09:30:08;99194.63;;;23.88;55.41
26823;BME280;14852;51.910;8.878;2023-08-07T09:32:36;99198.56;;;23.92;55.59
26823;BME280;14852;51.910;8.878;2023-08-07T09:35:06;99203.75;;;23.85;55.61
26823;BME280;14852;51.910;8.878;2023-08-07T09:37:32;99202.84;;;23.47;55.92
26823;BME280;14852;51.910;8.878;2023-08-07T09:40:01;99211.56;;;23.02;57.28
26823;BME280;14852;51.910;8.878;2023-08-07T09:42:31;99225.19;;;22.74;57.76
26823;BME280;14852;51.910;8.878;2023-08-07T09:44:59;99225.19;;;22.74;58.51
26823;BME280;14852;51.910;8.878;2023-08-07T09:47:25;99225.28;;;23.05;58.37
26823;BME280;14852;51.910;8.878;2023-08-07T09:49:54;99220.09;;;23.43;57.24
26823;BME280;14852;51.910;8.878;2023-08-07T09:52:20;99222.94;;;23.72;57.30
26823;BME280;14852;51.910;8.878;2023-08-07T09:54:46;99219.00;;;24.06;57.01
26823;BME280;14852;51.910;8.878;2023-08-07T09:57:13;99218.06;;;24.36;55.36
26823;BME280;14852;51.910;8.878;2023-08-07T09:59:41;99224.59;;;24.48;54.85
26823;BME280;14852;51.910;8.878;2023-08-07T10:02:06;99227.06;;;24.50;54.60
26823;BME280;14852;51.910;8.878;2023-08-07T10:04:35;99222.09;;;24.47;54.74
26823;BME280;14852;51.910;8.878;2023-08-07T10:07:01;99222.22;;;24.53;54.64
26823;BME280;14852;51.910;8.878;2023-08-07T10:09:27;99234.13;;;24.43;54.57
26823;BME280;14852;51.910;8.878;2023-08-07T10:11:55;99237.22;;;24.09;54.75
26823;BME280;14852;51.910;8.878;2023-08-07T10:14:22;99242.13;;;23.97;55.37
26823;BME280;14852;51.910;8.878;2023-08-07T10:16:49;99247.25;;;24.22;55.21
26823;BME280;14852;51.910;8.878;2023-08-07T10:19:15;99256.19;;;24.43;53.76
26823;BME280;14852;51.910;8.878;2023-08-07T10:21:41;99249.34;;;24.64;53.52
26823;BME280;14852;51.910;8.878;2023-08-07T10:24:09;99250.72;;;24.74;52.53
26823;BME280;14852;51.910;8.878;2023-08-07T10:26:43;99251.53;;;24.75;52.85
26823;BME280;14852;51.910;8.878;2023-08-07T10:29:14;99267.13;;;24.93;52.65
26823;BME280;14852;51.910;8.878;2023-08-07T10:31:42;99266.22;;;25.00;52.26
26823;BME280;14852;51.910;8.878;2023-08-07T10:34:09;99271.31;;;25.16;52.32
26823;BME280;14852;51.910;8.878;2023-08-07T10:36:36;99267.84;;;25.52;51.37
26823;BME280;14852;51.910;8.878;2023-08-07T10:39:12;99261.28;;;25.84;50.84
26823;BME280;14852;51.910;8.878;2023-08-07T10:41:45;99262.34;;;25.89;50.88
26823;BME280;14852;51.910;8.878;2023-08-07T10:44:22;99261.66;;;26.02;50.09
26823;BME280;14852;51.910;8.878;2023-08-07T10:46:54;99261.28;;;26.05;50.16
26823;BME280;14852;51.910;8.878;2023-08-07T10:52:14;99264.97;;;25.83;50.83
26823;BME280;14852;51.910;8.878;2023-08-07T10:54:46;99261.56;;;25.74;50.03
26823;BME280;14852;51.910;8.878;2023-08-07T10:57:14;99274.47;;;25.56;49.56
26823;BME280;14852;51.910;8.878;2023-08-07T11:02:30;99291.09;;;24.70;50.51
26823;BME280;14852;51.910;8.878;2023-08-07T11:04:56;99297.09;;;24.34;51.23
26823;BME280;14852;51.910;8.878;2023-08-07T11:07:27;99296.03;;;24.21;50.87
26823;BME280;14852;51.910;8.878;2023-08-07T11:09:57;99299.56;;;24.13;51.95
26823;BME280;14852;51.910;8.878;2023-08-07T11:12:28;99299.03;;;24.17;51.25
26823;BME280;14852;51.910;8.878;2023-08-07T11:14:57;99298.13;;;24.33;51.20
26823;BME280;14852;51.910;8.878;2023-08-07T11:17:29;99302.91;;;24.52;50.53
26823;BME280;14852;51.910;8.878;2023-08-07T11:19:56;99308.41;;;24.51;49.94
26823;BME280;14852;51.910;8.878;2023-08-07T11:22:22;99304.81;;;24.44;49.46
26823;BME280;14852;51.910;8.878;2023-08-07T11:24:49;99296.38;;;24.40;49.77
26823;BME280;14852;51.910;8.878;2023-08-07T11:27:15;99299.00;;;24.26;48.90
26823;BME280;14852;51.910;8.878;2023-08-07T11:29:41;99308.09;;;24.31;49.05
26823;BME280;14852;51.910;8.878;2023-08-07T11:32:09;99310.31;;;24.42;48.04
26823;BME280;14852;51.910;8.878;2023-08-07T11:34:35;99302.34;;;24.42;48.15
26823;BME280;14852;51.910;8.878;2023-08-07T11:37:01;99297.19;;;24.41;47.44
26823;BME280;14852;51.910;8.878;2023-08-07T11:39:27;99312.75;;;24.29;48.23
26823;BME280;14852;51.910;8.878;2023-08-07T11:41:53;99336.00;;;23.96;48.42
26823;BME280;14852;51.910;8.878;2023-08-07T11:44:19;99345.75;;;23.42;47.94
26823;BME280;14852;51.910;8.878;2023-08-07T11:46:45;99353.50;;;22.88;49.01
26823;BME280;14852;51.910;8.878;2023-08-07T11:49:11;99368.06;;;22.52;49.65
26823;BME280;14852;51.910;8.878;2023-08-07T11:51:38;99367.06;;;22.20;49.89
26823;BME280;14852;51.910;8.878;2023-08-07T11:54:04;99367.84;;;21.96;50.54
26823;BME280;14852;51.910;8.878;2023-08-07T11:56:30;99370.47;;;21.88;50.77
26823;BME280;14852;51.910;8.878;2023-08-07T11:58:57;99365.19;;;21.88;50.31
26823;BME280;14852;51.910;8.878;2023-08-07T12:01:25;99370.47;;;21.96;50.27
26823;BME280;14852;51.910;8.878;2023-08-07T12:04:08;99366.75;;;22.23;49.85
26823;BME280;14852;51.910;8.878;2023-08-07T12:06:34;99377.19;;;22.41;49.24
26823;BME280;14852;51.910;8.878;2023-08-07T12:09:02;99371.22;;;22.55;48.93
26823;BME280;14852;51.910;8.878;2023-08-07T12:11:29;99369.72;;;22.69;48.71
26823;BME280;14852;51.910;8.878;2023-08-07T12:13:56;99375.88;;;22.78;48.18
26823;BME280;14852;51.910;8.878;2023-08-07T12:16:21;99367.59;;;22.81;48.54
26823;BME280;14852;51.910;8.878;2023-08-07T12:18:49;99379.66;;;22.91;47.97
26823;BME280;14852;51.910;8.878;2023-08-07T12:21:25;99387.41;;;23.09;48.64
26823;BME280;14852;51.910;8.878;2023-08-07T12:23:54;99380.75;;;23.21;47.44
26823;BME280;14852;51.910;8.878;2023-08-07T12:26:20;99384.06;;;23.23;47.38
26823;BME280;14852;51.910;8.878;2023-08-07T12:28:46;99384.84;;;23.32;48.17
26823;BME280;14852;51.910;8.878;2023-08-07T12:31:11;99385.50;;;23.50;47.54
26823;BME280;14852;51.910;8.878;2023-08-07T12:33:37;99377.69;;;23.48;47.74
26823;BME280;14852;51.910;8.878;2023-08-07T12:36:03;99382.69;;;23.35;48.05
26823;BME280;14852;51.910;8.878;2023-08-07T12:38:29;99379.25;;;23.27;48.51
26823;BME280;14852;51.910;8.878;2023-08-07T12:40:55;99386.34;;;23.34;48.70
26823;BME280;14852;51.910;8.878;2023-08-07T12:43:21;99381.53;;;23.38;48.47
26823;BME280;14852;51.910;8.878;2023-08-07T12:45:47;99372.38;;;23.48;48.02
26823;BME280;14852;51.910;8.878;2023-08-07T12:48:13;99373.53;;;23.62;47.93
26823;BME280;14852;51.910;8.878;2023-08-07T12:50:39;99370.81;;;23.70;47.66
26823;BME280;14852;51.910;8.878;2023-08-07T12:53:07;99374.78;;;23.74;47.27
26823;BME280;14852;51.910;8.878;2023-08-07T12:55:33;99372.00;;;23.68;47.49
26823;BME280;14852;51.910;8.878;2023-08-07T12:57:59;99376.16;;;23.62;46.76
26823;BME280;14852;51.910;8.878;2023-08-07T13:00:25;99373.69;;;23.61;46.82
26823;BME280;14852;51.910;8.878;2023-08-07T13:02:52;99372.81;;;23.68;46.66
26823;BME280;14852;51.910;8.878;2023-08-07T13:05:19;99387.59;;;23.63;46.35
26823;BME280;14852;51.910;8.878;2023-08-07T13:07:46;99386.63;;;23.47;46.74
26823;BME280;14852;51.910;8.878;2023-08-07T13:10:15;99391.16;;;23.39;47.27
26823;BME280;14852;51.910;8.878;2023-08-07T13:12:44;99396.91;;;23.42;47.43